Time;durP1;ratioP1;P1;durP2;ratioP2;P2;SDS_P1;SDS_P2;PMS_P1;PMS_P2;Temp;Humidity;BMP_temperature;BMP_pressure;BME280_temperature;BME280_humidity;BME280_pressure;Samples;Min_cycle;Max_cycle;Signal;HPM_P1;HPM_P2
2024/01/06 00:02:05;;;;;;;18.67;17.13;;;-0.40;92.10;;;;;;5037539;28;20649;-86
2024/01/06 00:04:31;;;;;;;19.07;17.47;;;-0.40;92.20;;;;;;5039779;28;20181;-87
2024/01/06 00:06:56;;;;;;;20.03;18.37;;;-0.40;92.30;;;;;;5041995;28;20177;-86
2024/01/06 00:09:22;;;;;;;20.80;19.00;;;-0.40;92.20;;;;;;5039556;28;20237;-87
2024/01/06 00:11:47;;;;;;;20.33;18.60;;;-0.40;92.30;;;;;;5040915;28;20183;-87
2024/01/06 00:14:13;;;;;;;19.00;17.40;;;-0.50;92.30;;;;;;5041854;28;20193;-87
2024/01/06 00:16:38;;;;;;;12.37;9.93;;;-0.40;92.30;;;;;;5039593;28;20231;-87
2024/01/06 00:19:04;;;;;;;12.70;11.13;;;-0.50;92.30;;;;;;5042446;28;20551;-87
2024/01/06 00:21:29;;;;;;;16.43;14.80;;;-0.40;92.40;;;;;;5038761;28;20200;-86
2024/01/06 00:23:58;;;;;;;18.43;16.87;;;-0.50;92.50;;;;;;5040664;28;20181;-87
2024/01/06 00:26:24;;;;;;;19.70;18.00;;;-0.50;92.60;;;;;;5038828;28;20211;-86
2024/01/06 00:28:50;;;;;;;19.30;17.70;;;-0.50;92.60;;;;;;5037631;28;20209;-86
2024/01/06 00:31:17;;;;;;;18.73;17.13;;;-0.60;92.60;;;;;;5039274;28;20748;-87
2024/01/06 00:33:42;;;;;;;18.43;17.03;;;-0.50;92.70;;;;;;5039796;28;20223;-86
2024/01/06 00:36:08;;;;;;;19.03;17.17;;;-0.60;92.70;;;;;;5036338;28;20184;-86
2024/01/06 00:38:35;;;;;;;10.97;9.80;;;-0.60;92.70;;;;;;5038098;28;20181;-86
2024/01/06 00:41:03;;;;;;;8.50;7.73;;;-0.60;92.80;;;;;;5036995;28;20281;-86
2024/01/06 00:43:29;;;;;;;17.13;15.60;;;-0.60;92.80;;;;;;5054390;28;20185;-87
2024/01/06 00:45:54;;;;;;;19.67;17.57;;;-0.60;92.80;;;;;;5038333;28;20211;-86
2024/01/06 00:48:20;;;;;;;18.03;16.50;;;-0.60;92.80;;;;;;5036473;28;20207;-87
2024/01/06 00:50:45;;;;;;;18.43;16.73;;;-0.60;92.90;;;;;;5036301;28;20295;-87
2024/01/06 00:53:12;;;;;;;16.80;15.30;;;-0.60;92.90;;;;;;5036884;28;20561;-87
2024/01/06 00:55:38;;;;;;;15.57;14.37;;;-0.60;93.00;;;;;;5037445;28;20180;-87
2024/01/06 00:58:03;;;;;;;17.83;16.33;;;-0.60;93.00;;;;;;5036468;28;20604;-86
2024/01/06 01:00:29;;;;;;;15.03;13.57;;;-0.60;93.10;;;;;;5039852;28;20201;-86
2024/01/06 01:02:54;;;;;;;16.73;15.33;;;-0.60;93.00;;;;;;5039425;28;20184;-87
2024/01/06 01:05:20;;;;;;;16.80;15.40;;;-0.60;93.00;;;;;;5039940;28;20215;-86
2024/01/06 01:07:45;;;;;;;18.93;17.20;;;-0.60;93.10;;;;;;5038514;28;20181;-88
2024/01/06 01:10:11;;;;;;;16.87;15.57;;;-0.60;93.10;;;;;;5041715;28;20255;-85
2024/01/06 01:12:37;;;;;;;11.93;10.73;;;-0.60;93.10;;;;;;5040108;28;20223;-87
2024/01/06 01:15:03;;;;;;;7.37;6.63;;;-0.70;93.10;;;;;;5038613;28;20177;-88
2024/01/06 01:17:29;;;;;;;18.13;16.63;;;-0.70;93.10;;;;;;5055585;28;20184;-87
2024/01/06 01:19:55;;;;;;;17.40;15.87;;;-0.70;93.10;;;;;;5038916;28;20329;-87
2024/01/06 01:22:20;;;;;;;17.47;16.03;;;-0.70;93.20;;;;;;5039038;28;20184;-88
2024/01/06 01:24:46;;;;;;;18.50;16.93;;;-0.60;93.20;;;;;;5038410;28;20173;-87
2024/01/06 01:27:12;;;;;;;12.60;10.37;;;-0.70;93.20;;;;;;5037339;28;20188;-89
2024/01/06 01:29:37;;;;;;;10.47;9.20;;;-0.70;93.10;;;;;;5037544;28;20584;-88
2024/01/06 01:32:03;;;;;;;11.80;10.53;;;-0.70;93.10;;;;;;5036883;28;20181;-88
2024/01/06 01:34:28;;;;;;;17.33;16.03;;;-0.60;93.10;;;;;;5037803;28;20180;-86
2024/01/06 01:36:54;;;;;;;20.17;18.23;;;-0.70;93.20;;;;;;5040586;28;20173;-87
2024/01/06 01:39:20;;;;;;;16.50;15.07;;;-0.70;93.20;;;;;;5038770;28;20180;-88
2024/01/06 01:41:45;;;;;;;9.87;8.73;;;-0.70;93.20;;;;;;5038496;28;20252;-89
2024/01/06 01:44:12;;;;;;;10.43;9.13;;;-0.70;93.20;;;;;;5055075;28;20180;-87
2024/01/06 01:46:37;;;;;;;11.23;10.17;;;-0.70;93.30;;;;;;5039696;28;20181;-88
2024/01/06 01:49:04;;;;;;;16.80;15.20;;;-0.70;93.30;;;;;;5040133;28;20191;-88
2024/01/06 01:51:32;;;;;;;18.00;16.70;;;-0.70;93.30;;;;;;5038223;28;20377;-88
2024/01/06 01:54:00;;;;;;;17.73;16.17;;;-0.70;93.30;;;;;;5039731;28;20185;-88
2024/01/06 01:56:26;;;;;;;11.03;9.53;;;-0.70;93.10;;;;;;5039930;28;20184;-89
2024/01/06 01:58:53;;;;;;;10.97;9.77;;;-0.70;93.20;;;;;;5036878;28;20172;-88
2024/01/06 02:01:18;;;;;;;11.73;10.63;;;-0.70;93.20;;;;;;5054139;28;20196;-89
2024/01/06 02:03:44;;;;;;;19.40;17.70;;;-0.70;93.10;;;;;;5038597;28;20597;-88
2024/01/06 02:06:12;;;;;;;18.80;17.30;;;-0.70;93.20;;;;;;5038458;28;20183;-88
2024/01/06 02:08:38;;;;;;;17.07;15.77;;;-0.70;93.20;;;;;;5037954;28;20172;-88
2024/01/06 02:11:05;;;;;;;10.10;9.17;;;-0.70;93.20;;;;;;5037083;28;20582;-90
2024/01/06 02:13:37;;;;;;;12.27;10.40;;;-0.70;93.10;;;;;;5037635;28;20181;-90
2024/01/06 02:16:04;;;;;;;19.20;17.47;;;-0.70;93.10;;;;;;5037961;28;20230;-87
2024/01/06 02:18:30;;;;;;;17.13;15.77;;;-0.70;93.10;;;;;;5038942;28;20692;-88
2024/01/06 02:20:58;;;;;;;18.00;16.57;;;-0.70;93.10;;;;;;5037988;28;20257;-89
2024/01/06 02:23:24;;;;;;;18.03;16.60;;;-0.70;93.10;;;;;;5038541;28;20544;-87
2024/01/06 02:25:50;;;;;;;15.13;10.90;;;-0.70;93.10;;;;;;5037397;28;20176;-88
2024/01/06 02:28:15;;;;;;;11.80;10.00;;;-0.60;93.20;;;;;;5038029;28;20219;-89
2024/01/06 02:30:41;;;;;;;19.53;18.00;;;-0.70;93.20;;;;;;5038645;28;20703;-89
2024/01/06 02:33:06;;;;;;;18.80;17.13;;;-0.70;93.30;;;;;;5037354;28;20165;-87
2024/01/06 02:35:32;;;;;;;18.30;16.90;;;-0.60;93.30;;;;;;5036750;28;20645;-88
2024/01/06 02:37:57;;;;;;;19.13;17.53;;;-0.70;93.30;;;;;;5036245;28;20199;-88
2024/01/06 02:40:23;;;;;;;10.97;9.97;;;-0.70;93.20;;;;;;5035950;28;20239;-88
2024/01/06 02:42:48;;;;;;;10.60;9.50;;;-0.70;93.30;;;;;;5053341;28;20202;-88
2024/01/06 02:45:14;;;;;;;11.17;10.07;;;-0.60;93.30;;;;;;5052596;28;20176;-87
2024/01/06 02:47:39;;;;;;;12.40;9.53;;;-0.60;93.30;;;;;;5035700;28;20267;-86
2024/01/06 02:50:05;;;;;;;11.67;10.47;;;-0.60;93.40;;;;;;5036905;28;20206;-87
2024/01/06 02:52:31;;;;;;;9.40;8.40;;;-0.60;93.40;;;;;;5035598;28;20686;-88
2024/01/06 02:54:57;;;;;;;10.53;9.57;;;-0.60;93.40;;;;;;5037002;28;20177;-88
2024/01/06 02:57:22;;;;;;;12.70;11.37;;;-0.70;93.30;;;;;;5052438;28;20196;-87
2024/01/06 02:59:48;;;;;;;16.13;11.63;;;-0.70;93.30;;;;;;5037227;28;20231;-88
2024/01/06 03:02:13;;;;;;;11.90;10.70;;;-0.70;93.30;;;;;;5035716;28;20260;-88
2024/01/06 03:04:39;;;;;;;13.80;11.13;;;-0.60;93.20;;;;;;5035437;28;20215;-86
2024/01/06 03:07:04;;;;;;;18.83;17.30;;;-0.60;93.20;;;;;;5035124;28;20274;-88
2024/01/06 03:09:30;;;;;;;19.33;17.57;;;-0.60;93.20;;;;;;5033307;28;20213;-87
2024/01/06 03:11:55;;;;;;;22.27;20.17;;;-0.60;93.30;;;;;;5033285;28;20640;-87
2024/01/06 03:14:21;;;;;;;20.37;18.47;;;-0.60;93.20;;;;;;5033145;28;20173;-88
2024/01/06 03:16:46;;;;;;;21.27;19.47;;;-0.70;93.20;;;;;;5033354;28;20185;-87
2024/01/06 03:19:12;;;;;;;21.37;19.43;;;-0.60;93.20;;;;;;5033801;28;20155;-87
2024/01/06 03:21:38;;;;;;;21.93;19.80;;;-0.60;93.10;;;;;;5038405;28;20176;-85
2024/01/06 03:24:04;;;;;;;19.33;17.73;;;-0.60;93.10;;;;;;5039446;28;20181;-86
2024/01/06 03:26:30;;;;;;;19.87;18.13;;;-0.60;93.10;;;;;;5039940;28;20191;-85
2024/01/06 03:28:55;;;;;;;12.00;10.77;;;-0.60;93.10;;;;;;5039948;28;20264;-85
2024/01/06 03:31:22;;;;;;;9.93;9.00;;;-0.60;93.00;;;;;;5038515;28;20221;-86
2024/01/06 03:33:48;;;;;;;21.23;18.83;;;-0.60;92.90;;;;;;5039054;28;20192;-87
2024/01/06 03:36:16;;;;;;;23.43;21.17;;;-0.60;92.90;;;;;;5038327;28;20699;-87
2024/01/06 03:38:42;;;;;;;20.67;18.53;;;-0.60;92.80;;;;;;5038275;28;20173;-86
2024/01/06 03:41:08;;;;;;;21.97;19.97;;;-0.60;92.80;;;;;;5038070;28;20200;-86
2024/01/06 03:43:33;;;;;;;20.40;18.63;;;-0.60;92.80;;;;;;5038975;28;20181;-86
2024/01/06 03:46:00;;;;;;;15.83;12.13;;;-0.60;92.80;;;;;;5038522;28;20185;-86
2024/01/06 03:48:25;;;;;;;15.47;12.27;;;-0.60;92.70;;;;;;5039442;28;20168;-86
2024/01/06 03:50:51;;;;;;;21.63;19.50;;;-0.60;92.70;;;;;;5037905;28;20204;-86
2024/01/06 03:53:17;;;;;;;25.30;22.83;;;-0.60;92.50;;;;;;5038394;28;20555;-86
2024/01/06 03:55:43;;;;;;;22.63;20.50;;;-0.60;92.40;;;;;;5038409;28;20654;-87
2024/01/06 03:58:08;;;;;;;19.63;17.93;;;-0.60;92.40;;;;;;5039263;28;20167;-86
2024/01/06 04:00:34;;;;;;;11.60;9.27;;;-0.60;92.30;;;;;;5038903;28;20242;-86
2024/01/06 04:02:59;;;;;;;13.73;12.00;;;-0.60;92.10;;;;;;5054774;28;20623;-86
2024/01/06 04:05:25;;;;;;;20.93;19.17;;;-0.60;92.10;;;;;;5037476;28;20200;-86
2024/01/06 04:07:50;;;;;;;21.00;19.10;;;-0.60;92.00;;;;;;5037971;28;20645;-86
2024/01/06 04:10:16;;;;;;;21.13;19.03;;;-0.60;91.90;;;;;;5038766;28;20204;-88
2024/01/06 04:12:41;;;;;;;21.03;18.97;;;-0.60;91.80;;;;;;5039304;28;20200;-87
2024/01/06 04:15:07;;;;;;;15.60;11.23;;;-0.60;91.80;;;;;;5039267;28;20559;-85
2024/01/06 04:17:33;;;;;;;12.10;10.90;;;-0.60;91.60;;;;;;5037708;28;20174;-86
2024/01/06 04:19:58;;;;;;;22.20;20.30;;;-0.50;91.60;;;;;;5038414;28;20219;-87
2024/01/06 04:22:24;;;;;;;24.13;22.03;;;-0.60;91.50;;;;;;5037997;28;20173;-86
2024/01/06 04:24:49;;;;;;;23.40;21.50;;;-0.50;91.40;;;;;;5037435;28;20173;-86
2024/01/06 04:27:15;;;;;;;25.27;22.67;;;-0.50;91.40;;;;;;5039576;28;20215;-86
2024/01/06 04:29:41;;;;;;;14.43;11.43;;;-0.50;91.30;;;;;;5037860;28;20217;-87
2024/01/06 04:32:07;;;;;;;12.67;11.50;;;-0.50;91.20;;;;;;5036941;28;20177;-86
2024/01/06 04:34:33;;;;;;;14.23;12.73;;;-0.50;91.20;;;;;;5040574;28;20260;-85
2024/01/06 04:36:58;;;;;;;24.00;21.97;;;-0.50;91.20;;;;;;5041204;28;20277;-85
2024/01/06 04:39:24;;;;;;;28.80;23.33;;;-0.50;91.10;;;;;;5040319;28;20181;-86
2024/01/06 04:41:49;;;;;;;24.33;22.33;;;-0.50;91.20;;;;;;5042106;28;20271;-86
2024/01/06 04:44:15;;;;;;;22.70;20.67;;;-0.50;91.00;;;;;;5040596;28;20179;-87
2024/01/06 04:46:40;;;;;;;12.80;11.40;;;-0.40;91.10;;;;;;5042504;28;20207;-86
2024/01/06 04:49:06;;;;;;;12.83;11.57;;;-0.50;91.00;;;;;;5040353;28;20173;-87
2024/01/06 04:51:31;;;;;;;23.43;21.53;;;-0.50;91.00;;;;;;5041990;28;20299;-86
2024/01/06 04:53:57;;;;;;;23.30;21.10;;;-0.50;91.00;;;;;;5040939;28;20234;-86
2024/01/06 04:56:22;;;;;;;26.03;23.93;;;-0.50;91.00;;;;;;5040066;28;20564;-86
2024/01/06 04:58:48;;;;;;;23.57;21.47;;;-0.40;90.90;;;;;;5040109;28;20266;-86
2024/01/06 05:01:14;;;;;;;14.23;12.73;;;-0.50;91.00;;;;;;5039967;28;20197;-86
2024/01/06 05:03:39;;;;;;;17.17;13.83;;;-0.40;91.10;;;;;;5039814;28;20181;-87
2024/01/06 05:06:05;;;;;;;27.33;24.93;;;-0.50;91.00;;;;;;5038283;28;20181;-87
2024/01/06 05:08:30;;;;;;;21.33;19.73;;;-0.40;91.10;;;;;;5038931;28;20181;-87
2024/01/06 05:10:56;;;;;;;26.77;24.27;;;-0.50;91.10;;;;;;5040151;28;20291;-84
2024/01/06 05:13:22;;;;;;;24.93;22.73;;;-0.50;91.20;;;;;;5039747;28;20184;-86
2024/01/06 05:15:47;;;;;;;17.27;12.60;;;-0.50;91.20;;;;;;5038646;28;20169;-85
2024/01/06 05:18:13;;;;;;;14.67;12.83;;;-0.50;91.20;;;;;;5040405;28;20173;-86
2024/01/06 05:20:40;;;;;;;22.00;20.20;;;-0.50;91.20;;;;;;5038410;28;20217;-86
2024/01/06 05:23:06;;;;;;;22.53;20.73;;;-0.50;91.30;;;;;;5040641;28;20173;-86
2024/01/06 05:25:32;;;;;;;23.17;21.53;;;-0.50;91.10;;;;;;5038794;28;20211;-85
2024/01/06 05:27:57;;;;;;;23.13;21.37;;;-0.50;91.20;;;;;;5037977;28;20670;-86
2024/01/06 05:30:23;;;;;;;14.37;12.97;;;-0.50;91.20;;;;;;5038646;28;20267;-87
2024/01/06 05:32:48;;;;;;;13.87;11.83;;;-0.50;91.10;;;;;;5039957;28;20264;-87
2024/01/06 05:35:16;;;;;;;26.53;24.13;;;-0.50;91.00;;;;;;5040092;28;20169;-86
2024/01/06 05:37:41;;;;;;;22.73;20.83;;;-0.50;91.20;;;;;;5039431;28;20178;-86
2024/01/06 05:40:07;;;;;;;24.97;22.97;;;-0.50;91.10;;;;;;5040871;28;20200;-85
2024/01/06 05:42:33;;;;;;;25.23;22.97;;;-0.50;91.20;;;;;;5040639;28;20591;-87
2024/01/06 05:44:58;;;;;;;14.43;13.03;;;-0.50;91.20;;;;;;5039508;28;20184;-86
2024/01/06 05:47:24;;;;;;;12.10;10.90;;;-0.50;91.20;;;;;;5040173;28;20269;-85
2024/01/06 05:49:49;;;;;;;21.57;19.50;;;-0.50;91.20;;;;;;5038343;28;20220;-86
2024/01/06 05:52:15;;;;;;;22.67;20.80;;;-0.50;91.20;;;;;;5039173;28;20539;-86
2024/01/06 05:54:42;;;;;;;22.03;20.20;;;-0.50;91.20;;;;;;5039757;28;20552;-86
2024/01/06 05:57:08;;;;;;;25.07;22.87;;;-0.50;91.30;;;;;;5038178;28;20173;-84
2024/01/06 05:59:33;;;;;;;14.83;11.93;;;-0.50;91.30;;;;;;5039022;28;20196;-88
2024/01/06 06:02:00;;;;;;;15.97;13.53;;;-0.50;91.50;;;;;;5036885;28;20590;-86
2024/01/06 06:04:25;;;;;;;22.43;20.40;;;-0.50;91.50;;;;;;5036845;28;20177;-86
2024/01/06 06:06:51;;;;;;;22.23;20.40;;;-0.50;91.70;;;;;;5037018;28;20185;-86
2024/01/06 06:09:16;;;;;;;25.93;23.63;;;-0.60;91.70;;;;;;5038466;28;20169;-88
2024/01/06 06:11:42;;;;;;;25.77;23.53;;;-0.60;91.70;;;;;;5036527;28;20235;-87
2024/01/06 06:14:08;;;;;;;17.63;15.47;;;-0.60;91.70;;;;;;5036032;28;20619;-88
2024/01/06 06:16:34;;;;;;;18.57;15.50;;;-0.60;91.80;;;;;;5035563;28;20562;-88
2024/01/06 06:19:00;;;;;;;26.33;23.70;;;-0.60;91.90;;;;;;4998464;28;1099943;-86
2024/01/06 06:21:25;;;;;;;24.77;22.33;;;-0.60;91.90;;;;;;5037736;28;20192;-87
2024/01/06 06:23:51;;;;;;;25.57;23.13;;;-0.60;92.00;;;;;;5036680;28;20180;-88
2024/01/06 06:26:17;;;;;;;27.00;24.47;;;-0.60;91.90;;;;;;5037286;28;20173;-88
2024/01/06 06:28:42;;;;;;;17.47;14.07;;;-0.60;92.00;;;;;;5037036;28;20173;-87
2024/01/06 06:31:08;;;;;;;16.53;13.07;;;-0.60;92.10;;;;;;5037193;28;20201;-89
2024/01/06 06:33:33;;;;;;;16.27;14.57;;;-0.60;92.00;;;;;;5034924;28;20724;-87
2024/01/06 06:35:59;;;;;;;15.73;12.53;;;-0.60;92.10;;;;;;5037227;28;20176;-88
2024/01/06 06:38:25;;;;;;;;;;;-0.60;92.00;;;;;;5036819;28;20247;-87
2024/01/06 06:40:51;;;;;;;;;;;-0.60;92.10;;;;;;5035316;28;19982;-88
2024/01/06 06:43:16;;;;;;;;;;;-0.60;92.10;;;;;;5035393;28;19905;-87
2024/01/06 06:45:42;;;;;;;;;;;-0.60;92.10;;;;;;5052460;28;19954;-88
2024/01/06 06:48:07;;;;;;;;;;;-0.60;92.20;;;;;;5034789;28;19905;-88
2024/01/06 06:50:32;;;;;;;;;;;-0.60;92.30;;;;;;5051373;28;19968;-87
2024/01/06 06:52:58;;;;;;;;;;;-0.60;92.40;;;;;;5034940;28;19956;-89
2024/01/06 06:55:24;;;;;;;;;;;-0.60;92.50;;;;;;5034939;28;19905;-88
2024/01/06 06:57:49;;;;;;;;;;;-0.60;92.60;;;;;;5036430;28;20250;-87
2024/01/06 07:00:16;;;;;;;;;;;-0.60;92.70;;;;;;5037319;28;19905;-86
2024/01/06 07:02:41;;;;;;;;;;;-0.60;92.80;;;;;;5039608;28;19919;-85
2024/01/06 07:05:07;;;;;;;;;;;-0.60;92.90;;;;;;5037832;28;19905;-86
2024/01/06 07:07:33;;;;;;;;;;;-0.60;93.00;;;;;;5055860;28;19955;-85
2024/01/06 07:10:00;;;;;;;;;;;-0.60;93.10;;;;;;5039951;28;19988;-84
2024/01/06 07:12:27;;;;;;;;;;;-0.60;93.10;;;;;;5038467;28;19920;-84
2024/01/06 07:14:52;;;;;;;;;;;-0.60;93.20;;;;;;5039843;28;19913;-86
2024/01/06 07:17:18;;;;;;;;;;;-0.70;93.20;;;;;;5038973;28;19905;-85
2024/01/06 07:19:43;;;;;;;20.17;18.00;;;-0.70;93.20;;;;;;5038712;28;20019;-85
2024/01/06 07:22:09;;;;;;;22.53;19.00;;;-0.70;93.10;;;;;;5037827;28;20273;-86
2024/01/06 07:24:36;;;;;;;16.73;14.90;;;-0.70;93.10;;;;;;5038826;28;20247;-85
2024/01/06 07:27:03;;;;;;;18.50;15.17;;;-0.70;93.20;;;;;;5034419;28;20165;-85
2024/01/06 07:29:28;;;;;;;19.83;14.67;;;-0.70;93.20;;;;;;5032576;28;20200;-85
2024/01/06 07:31:54;;;;;;;15.77;13.60;;;-0.60;93.10;;;;;;5033794;28;20663;-85
2024/01/06 07:34:19;;;;;;;19.63;17.57;;;-0.60;93.10;;;;;;5032438;28;20187;-84
2024/01/06 07:36:45;;;;;;;20.83;18.83;;;-0.60;93.00;;;;;;5032634;28;20550;-85
2024/01/06 07:39:10;;;;;;;21.47;19.37;;;-0.60;92.90;;;;;;5033546;28;20174;-85
2024/01/06 07:41:36;;;;;;;20.93;18.90;;;-0.60;92.90;;;;;;5032368;28;20178;-85
2024/01/06 07:44:04;;;;;;;14.53;13.07;;;-0.60;92.80;;;;;;5033560;28;20177;-85
2024/01/06 07:46:31;;;;;;;20.83;18.83;;;-0.60;92.80;;;;;;5033512;28;20263;-86
2024/01/06 07:48:57;;;;;;;18.77;16.40;;;-0.60;92.70;;;;;;5032385;28;20183;-86
2024/01/06 07:51:23;;;;;;;18.60;16.77;;;-0.60;92.70;;;;;;5033644;28;20204;-85
2024/01/06 07:53:48;;;;;;;19.45;14.30;;;-0.60;92.60;;;;;;5032442;28;20184;-85
2024/01/06 07:56:14;;;;;;;14.63;12.13;;;-0.60;92.50;;;;;;5032128;28;20135;-85
2024/01/06 07:58:39;;;;;;;19.73;17.70;;;-0.60;92.40;;;;;;5032337;28;20220;-86
2024/01/06 08:01:05;;;;;;;17.73;16.03;;;-0.60;92.30;;;;;;5032033;28;20194;-85
2024/01/06 08:03:30;;;;;;;20.93;18.93;;;-0.60;92.30;;;;;;5032257;28;20222;-86
2024/01/06 08:05:56;;;;;;;20.70;18.53;;;-0.60;92.20;;;;;;5033799;28;20161;-85
2024/01/06 08:08:22;;;;;;;18.20;16.50;;;-0.60;92.20;;;;;;5034874;28;20173;-89
2024/01/06 08:10:48;;;;;;;20.70;18.40;;;-0.60;92.10;;;;;;5037380;28;20271;-86
2024/01/06 08:13:14;;;;;;;20.47;18.47;;;-0.60;92.00;;;;;;5036360;28;20181;-86
2024/01/06 08:15:40;;;;;;;18.70;16.87;;;-0.50;92.00;;;;;;5036222;28;20174;-86
2024/01/06 08:18:05;;;;;;;21.10;19.23;;;-0.50;91.90;;;;;;5036349;28;20590;-85
2024/01/06 08:20:31;;;;;;;17.80;14.27;;;-0.60;91.80;;;;;;5037158;28;20213;-84
2024/01/06 08:22:57;;;;;;;14.73;13.13;;;-0.50;91.70;;;;;;5036013;28;20657;-86
2024/01/06 08:25:22;;;;;;;15.70;13.57;;;-0.50;91.70;;;;;;5036436;28;20193;-86
2024/01/06 08:27:48;;;;;;;19.63;17.67;;;-0.50;91.60;;;;;;5037207;28;20256;-86
2024/01/06 08:30:13;;;;;;;19.90;18.10;;;-0.50;91.70;;;;;;5037247;28;20630;-85
2024/01/06 08:32:39;;;;;;;22.60;20.37;;;-0.50;91.60;;;;;;5037462;28;20170;-85
2024/01/06 08:35:05;;;;;;;14.70;13.20;;;-0.50;91.60;;;;;;5035894;28;20177;-85
2024/01/06 08:37:30;;;;;;;11.67;10.43;;;-0.50;91.70;;;;;;5037205;28;20300;-86
2024/01/06 08:39:56;;;;;;;23.93;21.73;;;-0.50;91.70;;;;;;5037368;28;20322;-86
2024/01/06 08:42:23;;;;;;;23.73;21.53;;;-0.50;91.70;;;;;;5036309;28;20605;-85
2024/01/06 08:44:48;;;;;;;21.80;19.80;;;-0.60;91.80;;;;;;5036040;28;20638;-86
2024/01/06 08:47:14;;;;;;;17.03;15.23;;;-0.50;91.90;;;;;;5035586;28;20177;-85
2024/01/06 08:49:39;;;;;;;11.67;9.73;;;-0.60;91.90;;;;;;5035349;28;20208;-86
2024/01/06 08:52:05;;;;;;;13.73;12.27;;;-0.60;91.90;;;;;;5037351;28;20181;-85
2024/01/06 08:54:32;;;;;;;19.07;17.27;;;-0.60;92.00;;;;;;5035475;28;20176;-86
2024/01/06 08:56:57;;;;;;;20.07;18.23;;;-0.60;92.10;;;;;;5035857;28;20184;-85
2024/01/06 08:59:23;;;;;;;21.60;19.43;;;-0.60;92.10;;;;;;5036808;28;20172;-85
2024/01/06 09:01:48;;;;;;;17.13;13.77;;;-0.60;92.10;;;;;;5035476;28;20187;-85
2024/01/06 09:04:14;;;;;;;15.63;12.70;;;-0.60;92.10;;;;;;5036772;28;20660;-85
2024/01/06 09:06:41;;;;;;;26.43;19.37;;;-0.60;92.10;;;;;;5036918;28;20169;-85
2024/01/06 09:09:08;;;;;;;18.17;16.57;;;-0.60;92.10;;;;;;5035706;28;20171;-85
2024/01/06 09:11:33;;;;;;;21.53;19.23;;;-0.60;92.00;;;;;;5037057;28;20197;-85
2024/01/06 09:13:59;;;;;;;21.07;19.17;;;-0.60;92.10;;;;;;5036773;28;20205;-86
2024/01/06 09:16:24;;;;;;;22.83;12.63;;;-0.60;92.20;;;;;;5035517;28;20176;-87
2024/01/06 09:18:50;;;;;;;16.00;12.23;;;-0.60;92.30;;;;;;5036387;28;20196;-86
2024/01/06 09:21:17;;;;;;;22.07;19.97;;;-0.60;92.40;;;;;;5035942;28;20201;-86
2024/01/06 09:23:42;;;;;;;19.60;17.97;;;-0.60;92.50;;;;;;5036025;28;20269;-87
2024/01/06 09:26:08;;;;;;;22.67;20.60;;;-0.60;92.50;;;;;;5035794;28;20626;-87
2024/01/06 09:28:33;;;;;;;15.63;12.37;;;-0.60;92.50;;;;;;5035603;28;20277;-86
2024/01/06 09:30:59;;;;;;;16.17;11.43;;;-0.60;92.60;;;;;;5035738;28;20299;-85
2024/01/06 09:33:25;;;;;;;18.63;16.93;;;-0.60;92.60;;;;;;5036459;28;20187;-85
2024/01/06 09:35:50;;;;;;;19.10;17.47;;;-0.60;92.60;;;;;;5037435;28;20215;-87
2024/01/06 09:38:17;;;;;;;19.10;17.23;;;-0.60;92.50;;;;;;5035958;28;20713;-87
2024/01/06 09:40:44;;;;;;;20.13;18.13;;;-0.60;92.40;;;;;;5037617;28;20656;-86
2024/01/06 09:43:11;;;;;;;16.03;12.03;;;-0.60;92.30;;;;;;5036343;28;20173;-87
2024/01/06 09:45:37;;;;;;;13.85;12.35;;;-0.60;92.20;;;;;;5036144;28;20280;-86
2024/01/06 09:48:12;;;;;;;19.00;17.40;;;-0.50;92.00;;;;;;5036194;28;19905;-85
2024/01/06 09:50:41;;;;;;;21.93;19.83;;;-0.50;91.70;;;;;;5035518;28;20208;-85
2024/01/06 09:53:08;;;;;;;17.23;15.77;;;-0.50;91.40;;;;;;5035567;28;20560;-85
2024/01/06 09:55:35;;;;;;;46.63;11.67;;;-0.50;91.40;;;;;;5037198;28;20580;-87
2024/01/06 09:58:01;;;;;;;12.57;11.37;;;-0.40;91.30;;;;;;5037162;28;20372;-85
2024/01/06 10:00:27;;;;;;;18.70;17.07;;;-0.50;91.20;;;;;;5037683;28;20197;-87
2024/01/06 10:02:52;;;;;;;18.57;16.83;;;-0.50;91.00;;;;;;5035731;28;20272;-87
2024/01/06 10:05:18;;;;;;;19.87;14.80;;;-0.50;90.90;;;;;;5036720;28;20177;-86
2024/01/06 10:07:45;;;;;;;12.47;11.30;;;-0.40;90.80;;;;;;5034825;28;20295;-86
2024/01/06 10:10:11;;;;;;;;;;;-0.40;90.90;;;;;;5035833;28;20269;-86
2024/01/06 10:12:41;;;;;;;;;;;-0.40;90.90;;;;;;5036286;28;20396;-86
2024/01/06 10:15:08;;;;;;;18.00;16.10;;;-0.40;90.80;;;;;;5035511;28;19905;-86
2024/01/06 10:17:37;;;;;;;19.37;17.17;;;-0.40;90.80;;;;;;5034884;28;20183;-86
2024/01/06 10:20:07;;;;;;;14.63;12.47;;;-0.40;90.70;;;;;;5036575;28;20277;-88
2024/01/06 10:22:34;;;;;;;15.63;12.63;;;-0.40;90.80;;;;;;5035091;28;20688;-86
2024/01/06 10:25:00;;;;;;;18.03;16.17;;;-0.30;90.80;;;;;;5034630;28;20177;-87
2024/01/06 10:27:25;;;;;;;20.53;18.53;;;-0.30;90.70;;;;;;5034511;28;20177;-87
2024/01/06 10:29:51;;;;;;;17.07;15.47;;;-0.30;90.60;;;;;;5034569;28;20232;-87
2024/01/06 10:32:18;;;;;;;15.00;13.00;;;-0.30;90.50;;;;;;5034045;28;20188;-85
2024/01/06 10:34:45;;;;;;;15.53;13.27;;;-0.30;90.50;;;;;;5035077;28;20240;-88
2024/01/06 10:37:10;;;;;;;21.13;17.73;;;-0.30;90.50;;;;;;5034367;28;20224;-87
2024/01/06 10:39:36;;;;;;;17.43;15.67;;;-0.30;90.50;;;;;;5035931;28;20191;-87
2024/01/06 10:42:03;;;;;;;19.43;17.47;;;-0.30;90.40;;;;;;5034449;28;20172;-86
2024/01/06 10:44:32;;;;;;;15.60;12.93;;;-0.30;90.40;;;;;;5036257;28;20179;-87
2024/01/06 10:46:58;;;;;;;14.00;11.33;;;-0.30;90.40;;;;;;5035024;28;20176;-86
2024/01/06 10:49:24;;;;;;;12.67;11.47;;;-0.30;90.30;;;;;;5035771;28;20264;-86
2024/01/06 10:51:53;;;;;;;16.05;14.35;;;-0.30;90.30;;;;;;5034849;28;20422;-90
2024/01/06 10:54:20;;;;;;;16.40;12.87;;;-0.30;90.30;;;;;;5034500;28;20664;-87
2024/01/06 10:56:47;;;;;;;14.47;12.13;;;-0.30;90.30;;;;;;5034045;28;20548;-87
2024/01/06 10:59:13;;;;;;;15.90;13.07;;;-0.20;90.40;;;;;;5034662;28;20215;-86
2024/01/06 11:01:39;;;;;;;18.77;12.40;;;-0.30;90.40;;;;;;5035110;28;20078;-86
2024/01/06 11:04:06;;;;;;;13.97;12.57;;;-0.30;90.00;;;;;;5035238;28;20184;-87
2024/01/06 11:06:32;;;;;;;21.05;11.35;;;-0.30;89.90;;;;;;5033933;28;20706;-86
2024/01/06 11:09:10;;;;;;;;;;;-0.30;90.00;;;;;;5034747;28;20365;-86
2024/01/06 11:11:37;;;;;;;;;;;-0.20;90.00;;;;;;5035378;28;19909;-90
2024/01/06 11:14:21;;;;;;;;;;;-0.20;90.10;;;;;;5034630;28;19912;-86
2024/01/06 11:16:46;;;;;;;;;;;-0.30;89.90;;;;;;5034715;28;19912;-87
2024/01/06 11:19:31;;;;;;;;;;;-0.30;90.20;;;;;;5034399;28;19912;-87
2024/01/06 11:21:56;;;;;;;;;;;-0.20;90.30;;;;;;5035365;28;19916;-86
2024/01/06 11:24:25;;;;;;;;;;;-0.20;90.40;;;;;;5034939;28;19909;-87
2024/01/06 11:26:52;;;;;;;;;;;-0.30;90.50;;;;;;5037098;28;20000;-89
2024/01/06 11:29:19;;;;;;;;;;;-0.20;90.70;;;;;;5035839;28;20284;-89
2024/01/06 11:32:04;;;;;;;;;;;-0.30;90.80;;;;;;5036988;28;19909;-86
2024/01/06 11:34:31;;;;;;;;;;;-0.30;90.50;;;;;;5034294;28;19905;-90
2024/01/06 11:36:57;;;;;;;;;;;-0.40;90.40;;;;;;5034400;28;19943;-89
2024/01/06 11:39:36;;;;;;;;;;;-0.30;90.60;;;;;;5035054;28;19943;-87
2024/01/06 11:42:02;;;;;;;;;;;-0.40;90.40;;;;;;5033391;28;20365;-86
2024/01/06 11:44:28;;;;;;;;;;;-0.40;90.40;;;;;;5032829;28;19905;-89
2024/01/06 11:46:56;;;;;;;;;;;-0.40;90.50;;;;;;5032616;28;20041;-86
2024/01/06 11:49:21;;;;;;;;;;;-0.40;90.70;;;;;;5032756;28;19908;-87
2024/01/06 11:51:47;;;;;;;16.30;12.50;;;-0.40;90.60;;;;;;5032332;28;20254;-86
2024/01/06 11:54:12;;;;;;;;;;;-0.30;90.80;;;;;;5034089;28;19909;-87
2024/01/06 11:56:39;;;;;;;14.27;13.13;;;-0.40;90.80;;;;;;5048944;28;19905;-89
2024/01/06 11:59:05;;;;;;;16.57;15.07;;;-0.40;90.50;;;;;;5032043;28;20173;-87
2024/01/06 12:01:37;;;;;;;10.03;9.20;;;-0.40;90.40;;;;;;5031832;28;20256;-88
2024/01/06 12:04:05;;;;;;;9.67;8.97;;;-0.40;90.10;;;;;;5032069;28;20180;-88
2024/01/06 12:06:31;;;;;;;11.73;10.63;;;-0.40;89.80;;;;;;5048647;28;20180;-87
2024/01/06 12:09:15;;;;;;;14.13;12.93;;;-0.40;89.80;;;;;;5031926;28;20180;-88
2024/01/06 12:11:44;;;;;;;15.80;14.70;;;-0.40;89.60;;;;;;5033529;28;20205;-86
2024/01/06 12:14:10;;;;;;;11.30;10.20;;;-0.40;89.60;;;;;;5031840;28;20176;-87
2024/01/06 12:16:36;;;;;;;12.97;10.70;;;-0.40;89.50;;;;;;5034628;28;20541;-87
2024/01/06 12:19:03;;;;;;;;;;;-0.40;89.60;;;;;;5033563;28;20193;-87
2024/01/06 12:21:30;;;;;;;15.37;14.27;;;-0.40;89.60;;;;;;5033460;28;20241;-87
2024/01/06 12:24:17;;;;;;;16.57;15.27;;;-0.40;89.70;;;;;;5032155;28;20673;-87
2024/01/06 12:26:44;;;;;;;16.03;14.73;;;-0.50;89.90;;;;;;5032050;28;20173;-88
2024/01/06 12:29:11;;;;;;;9.40;8.60;;;-0.50;90.30;;;;;;5033284;28;20185;-88
2024/01/06 12:31:37;;;;;;;9.50;8.70;;;-0.50;90.60;;;;;;5048594;28;20200;-87
2024/01/06 12:34:04;;;;;;;13.30;12.30;;;-0.60;90.70;;;;;;5048711;28;20707;-87
2024/01/06 12:36:30;;;;;;;14.53;13.53;;;-0.50;90.70;;;;;;5032497;28;20736;-86